KDZJ

Blairsville Airport

Blairsville, Georgia, USA
METAR KDZJ 211435Z AUTO 00000KT 10SM SCT120 21/16 A3024 RMK AO2 T02150161
Observed Flight Rules
May-21 @ 14:35 UTC (6 minutes ago) Visual Flight Rules
Visibility Clouds
10 miles
  • Scattered at 12,000' AGL
Temperatures Readings
Current 22°C / 72°F
Dewpoint 16°C / 61°F
Humidity 69%
Altimeter 30.24" Hg
Pressure 1024 hPa
Elevation 582
METAR KDZJ 211435Z AUTO 00000KT 10SM SCT120 21/16 A3024 RMK AO2 T02150161
Observed Flight Rules
May-21 @ 14:35 UTC
(6 minutes ago)
VFR
Clouds
  • Scattered at 12,000' AGL
Temperature Dewpoint
22°C / 72°F 16°C / 61°F
Humidity Altimeter Pressure
69% 30.24" Hg 1024 hPa